sensor_id;sensor_type;location;lat;lon;timestamp;P1;durP1;ratioP1;P2;durP2;ratioP2
77105;SDS011;66057;54.718;18.426;2024-02-23T00:01:47;20.02;;;9.55;;
77105;SDS011;66057;54.718;18.426;2024-02-23T00:04:13;15.88;;;9.60;;
77105;SDS011;66057;54.718;18.426;2024-02-23T00:06:38;16.15;;;8.90;;
77105;SDS011;66057;54.718;18.426;2024-02-23T00:09:04;19.80;;;7.88;;
77105;SDS011;66057;54.718;18.426;2024-02-23T00:11:29;16.08;;;8.00;;
77105;SDS011;66057;54.718;18.426;2024-02-23T00:13:56;16.98;;;8.52;;
77105;SDS011;66057;54.718;18.426;2024-02-23T00:16:21;15.75;;;8.75;;
77105;SDS011;66057;54.718;18.426;2024-02-23T00:18:47;16.88;;;9.10;;
77105;SDS011;66057;54.718;18.426;2024-02-23T00:21:12;12.95;;;7.78;;
77105;SDS011;66057;54.718;18.426;2024-02-23T00:23:38;16.33;;;10.35;;
77105;SDS011;66057;54.718;18.426;2024-02-23T00:26:03;17.00;;;9.70;;
77105;SDS011;66057;54.718;18.426;2024-02-23T00:28:29;14.57;;;9.43;;
77105;SDS011;66057;54.718;18.426;2024-02-23T00:30:55;19.90;;;9.73;;
77105;SDS011;66057;54.718;18.426;2024-02-23T00:33:21;15.77;;;8.65;;
77105;SDS011;66057;54.718;18.426;2024-02-23T00:35:47;14.25;;;9.02;;
77105;SDS011;66057;54.718;18.426;2024-02-23T00:38:12;23.20;;;10.98;;
77105;SDS011;66057;54.718;18.426;2024-02-23T00:40:38;16.10;;;8.15;;
77105;SDS011;66057;54.718;18.426;2024-02-23T00:43:04;18.10;;;9.85;;
77105;SDS011;66057;54.718;18.426;2024-02-23T00:45:30;19.85;;;8.95;;
77105;SDS011;66057;54.718;18.426;2024-02-23T00:47:56;18.55;;;8.68;;
77105;SDS011;66057;54.718;18.426;2024-02-23T00:50:22;14.68;;;8.70;;
77105;SDS011;66057;54.718;18.426;2024-02-23T00:52:49;17.15;;;8.80;;
77105;SDS011;66057;54.718;18.426;2024-02-23T00:55:14;16.35;;;8.73;;
77105;SDS011;66057;54.718;18.426;2024-02-23T00:57:40;19.27;;;9.27;;
77105;SDS011;66057;54.718;18.426;2024-02-23T01:00:06;14.80;;;6.72;;
77105;SDS011;66057;54.718;18.426;2024-02-23T01:02:32;15.00;;;7.68;;
77105;SDS011;66057;54.718;18.426;2024-02-23T01:05:00;16.42;;;7.90;;
77105;SDS011;66057;54.718;18.426;2024-02-23T01:07:26;19.30;;;8.02;;
77105;SDS011;66057;54.718;18.426;2024-02-23T01:09:51;14.68;;;7.68;;
77105;SDS011;66057;54.718;18.426;2024-02-23T01:12:17;23.60;;;9.48;;
77105;SDS011;66057;54.718;18.426;2024-02-23T01:14:42;9.77;;;6.00;;
77105;SDS011;66057;54.718;18.426;2024-02-23T01:17:08;17.77;;;10.00;;
77105;SDS011;66057;54.718;18.426;2024-02-23T01:19:34;13.65;;;7.35;;
77105;SDS011;66057;54.718;18.426;2024-02-23T01:21:59;12.38;;;7.47;;
77105;SDS011;66057;54.718;18.426;2024-02-23T01:24:26;19.63;;;11.35;;
77105;SDS011;66057;54.718;18.426;2024-02-23T01:26:53;17.63;;;10.38;;
77105;SDS011;66057;54.718;18.426;2024-02-23T01:29:20;16.27;;;9.70;;
77105;SDS011;66057;54.718;18.426;2024-02-23T01:31:46;14.93;;;8.35;;
77105;SDS011;66057;54.718;18.426;2024-02-23T01:34:11;12.38;;;8.52;;
77105;SDS011;66057;54.718;18.426;2024-02-23T01:36:37;16.25;;;8.23;;
77105;SDS011;66057;54.718;18.426;2024-02-23T01:41:29;15.18;;;7.43;;
77105;SDS011;66057;54.718;18.426;2024-02-23T01:43:55;14.65;;;7.40;;
77105;SDS011;66057;54.718;18.426;2024-02-23T01:46:21;17.13;;;9.50;;
77105;SDS011;66057;54.718;18.426;2024-02-23T01:48:46;14.35;;;6.97;;
77105;SDS011;66057;54.718;18.426;2024-02-23T01:51:12;17.75;;;8.13;;
77105;SDS011;66057;54.718;18.426;2024-02-23T01:53:38;15.98;;;9.77;;
77105;SDS011;66057;54.718;18.426;2024-02-23T01:56:04;16.05;;;7.85;;
77105;SDS011;66057;54.718;18.426;2024-02-23T01:58:30;16.13;;;8.35;;
77105;SDS011;66057;54.718;18.426;2024-02-23T02:00:56;17.33;;;8.88;;
77105;SDS011;66057;54.718;18.426;2024-02-23T02:03:21;13.35;;;7.93;;
77105;SDS011;66057;54.718;18.426;2024-02-23T02:05:48;12.05;;;7.38;;
77105;SDS011;66057;54.718;18.426;2024-02-23T02:08:14;14.32;;;7.55;;
77105;SDS011;66057;54.718;18.426;2024-02-23T02:10:41;9.80;;;6.72;;
77105;SDS011;66057;54.718;18.426;2024-02-23T02:15:33;12.48;;;6.85;;
77105;SDS011;66057;54.718;18.426;2024-02-23T02:17:59;11.65;;;7.13;;
77105;SDS011;66057;54.718;18.426;2024-02-23T02:20:25;11.80;;;6.95;;
77105;SDS011;66057;54.718;18.426;2024-02-23T02:22:51;13.52;;;7.75;;
77105;SDS011;66057;54.718;18.426;2024-02-23T02:25:17;16.35;;;7.10;;
77105;SDS011;66057;54.718;18.426;2024-02-23T02:27:43;13.88;;;6.82;;
77105;SDS011;66057;54.718;18.426;2024-02-23T02:30:11;15.80;;;7.60;;
77105;SDS011;66057;54.718;18.426;2024-02-23T02:32:36;12.27;;;5.18;;
77105;SDS011;66057;54.718;18.426;2024-02-23T02:35:02;11.52;;;8.57;;
77105;SDS011;66057;54.718;18.426;2024-02-23T02:37:28;16.40;;;9.63;;
77105;SDS011;66057;54.718;18.426;2024-02-23T02:39:53;9.38;;;6.68;;
77105;SDS011;66057;54.718;18.426;2024-02-23T02:42:19;12.43;;;8.30;;
77105;SDS011;66057;54.718;18.426;2024-02-23T02:44:44;13.48;;;7.00;;
77105;SDS011;66057;54.718;18.426;2024-02-23T02:47:10;14.65;;;8.57;;
77105;SDS011;66057;54.718;18.426;2024-02-23T02:49:36;12.65;;;6.75;;
77105;SDS011;66057;54.718;18.426;2024-02-23T02:52:01;14.68;;;7.80;;
77105;SDS011;66057;54.718;18.426;2024-02-23T02:54:27;9.52;;;6.05;;
77105;SDS011;66057;54.718;18.426;2024-02-23T02:56:52;9.13;;;6.30;;
77105;SDS011;66057;54.718;18.426;2024-02-23T03:04:12;11.68;;;6.43;;
77105;SDS011;66057;54.718;18.426;2024-02-23T03:06:38;11.40;;;6.47;;
77105;SDS011;66057;54.718;18.426;2024-02-23T03:09:03;8.80;;;6.43;;
77105;SDS011;66057;54.718;18.426;2024-02-23T03:11:30;17.83;;;8.07;;
77105;SDS011;66057;54.718;18.426;2024-02-23T03:13:55;8.13;;;5.15;;
77105;SDS011;66057;54.718;18.426;2024-02-23T03:16:21;11.07;;;6.95;;
77105;SDS011;66057;54.718;18.426;2024-02-23T03:18:49;10.73;;;7.05;;
77105;SDS011;66057;54.718;18.426;2024-02-23T03:21:15;10.23;;;5.95;;
77105;SDS011;66057;54.718;18.426;2024-02-23T03:23:41;14.05;;;6.68;;
77105;SDS011;66057;54.718;18.426;2024-02-23T03:26:06;9.52;;;5.32;;
77105;SDS011;66057;54.718;18.426;2024-02-23T03:28:32;10.00;;;5.50;;
77105;SDS011;66057;54.718;18.426;2024-02-23T03:30:57;8.13;;;5.28;;
77105;SDS011;66057;54.718;18.426;2024-02-23T03:33:23;11.00;;;6.63;;
77105;SDS011;66057;54.718;18.426;2024-02-23T03:35:49;14.27;;;7.47;;
77105;SDS011;66057;54.718;18.426;2024-02-23T03:38:14;9.82;;;5.75;;
77105;SDS011;66057;54.718;18.426;2024-02-23T03:40:40;9.93;;;5.35;;
77105;SDS011;66057;54.718;18.426;2024-02-23T03:43:06;11.07;;;7.13;;
77105;SDS011;66057;54.718;18.426;2024-02-23T03:45:31;7.13;;;4.97;;
77105;SDS011;66057;54.718;18.426;2024-02-23T03:47:57;8.13;;;5.55;;
77105;SDS011;66057;54.718;18.426;2024-02-23T03:50:23;10.70;;;5.75;;
77105;SDS011;66057;54.718;18.426;2024-02-23T03:52:49;8.43;;;5.18;;
77105;SDS011;66057;54.718;18.426;2024-02-23T03:55:14;7.65;;;4.68;;
77105;SDS011;66057;54.718;18.426;2024-02-23T03:57:40;8.43;;;4.75;;
77105;SDS011;66057;54.718;18.426;2024-02-23T04:00:05;10.90;;;6.85;;
77105;SDS011;66057;54.718;18.426;2024-02-23T04:02:33;12.48;;;5.30;;
77105;SDS011;66057;54.718;18.426;2024-02-23T04:04:59;9.35;;;6.45;;
77105;SDS011;66057;54.718;18.426;2024-02-23T04:07:24;8.82;;;5.40;;
77105;SDS011;66057;54.718;18.426;2024-02-23T04:09:50;8.88;;;5.95;;
77105;SDS011;66057;54.718;18.426;2024-02-23T04:12:18;8.20;;;6.00;;
77105;SDS011;66057;54.718;18.426;2024-02-23T04:17:11;9.65;;;4.47;;
77105;SDS011;66057;54.718;18.426;2024-02-23T04:19:37;12.15;;;5.72;;
77105;SDS011;66057;54.718;18.426;2024-02-23T04:22:03;9.23;;;4.82;;
77105;SDS011;66057;54.718;18.426;2024-02-23T04:24:29;10.95;;;5.57;;
77105;SDS011;66057;54.718;18.426;2024-02-23T04:26:55;9.60;;;6.20;;
77105;SDS011;66057;54.718;18.426;2024-02-23T04:29:20;10.63;;;6.72;;
77105;SDS011;66057;54.718;18.426;2024-02-23T04:31:46;10.02;;;5.82;;
77105;SDS011;66057;54.718;18.426;2024-02-23T04:34:11;9.90;;;5.38;;
77105;SDS011;66057;54.718;18.426;2024-02-23T04:36:37;9.65;;;6.07;;
77105;SDS011;66057;54.718;18.426;2024-02-23T04:39:02;9.30;;;4.93;;
77105;SDS011;66057;54.718;18.426;2024-02-23T04:41:29;8.30;;;5.45;;
77105;SDS011;66057;54.718;18.426;2024-02-23T04:43:55;8.02;;;4.65;;
77105;SDS011;66057;54.718;18.426;2024-02-23T04:46:25;8.77;;;5.40;;
77105;SDS011;66057;54.718;18.426;2024-02-23T04:48:51;7.10;;;4.25;;
77105;SDS011;66057;54.718;18.426;2024-02-23T04:51:17;7.95;;;5.45;;
77105;SDS011;66057;54.718;18.426;2024-02-23T04:53:42;9.88;;;5.40;;
77105;SDS011;66057;54.718;18.426;2024-02-23T04:56:08;8.10;;;6.05;;
77105;SDS011;66057;54.718;18.426;2024-02-23T04:58:34;8.80;;;4.75;;
77105;SDS011;66057;54.718;18.426;2024-02-23T05:01:00;10.85;;;5.82;;
77105;SDS011;66057;54.718;18.426;2024-02-23T05:03:25;7.78;;;4.35;;
77105;SDS011;66057;54.718;18.426;2024-02-23T05:05:52;7.72;;;5.38;;
77105;SDS011;66057;54.718;18.426;2024-02-23T05:08:19;6.00;;;4.32;;
77105;SDS011;66057;54.718;18.426;2024-02-23T05:10:46;7.85;;;4.65;;
77105;SDS011;66057;54.718;18.426;2024-02-23T05:13:11;9.75;;;5.25;;
77105;SDS011;66057;54.718;18.426;2024-02-23T05:15:37;6.53;;;4.65;;
77105;SDS011;66057;54.718;18.426;2024-02-23T05:18:03;8.05;;;4.97;;
77105;SDS011;66057;54.718;18.426;2024-02-23T05:20:28;4.90;;;3.67;;
77105;SDS011;66057;54.718;18.426;2024-02-23T05:22:54;7.60;;;3.78;;
77105;SDS011;66057;54.718;18.426;2024-02-23T05:25:20;6.93;;;4.55;;
77105;SDS011;66057;54.718;18.426;2024-02-23T05:27:45;6.07;;;4.05;;
77105;SDS011;66057;54.718;18.426;2024-02-23T05:30:11;4.63;;;3.08;;
77105;SDS011;66057;54.718;18.426;2024-02-23T05:32:37;6.47;;;3.65;;
77105;SDS011;66057;54.718;18.426;2024-02-23T05:35:03;7.20;;;4.70;;
77105;SDS011;66057;54.718;18.426;2024-02-23T05:37:28;6.85;;;4.05;;
77105;SDS011;66057;54.718;18.426;2024-02-23T05:39:54;3.42;;;2.40;;
77105;SDS011;66057;54.718;18.426;2024-02-23T05:42:20;6.82;;;3.83;;
77105;SDS011;66057;54.718;18.426;2024-02-23T05:44:46;4.25;;;3.08;;
77105;SDS011;66057;54.718;18.426;2024-02-23T05:47:11;4.13;;;2.83;;
77105;SDS011;66057;54.718;18.426;2024-02-23T05:49:39;2.55;;;1.88;;
77105;SDS011;66057;54.718;18.426;2024-02-23T05:52:05;5.20;;;2.92;;
77105;SDS011;66057;54.718;18.426;2024-02-23T05:54:30;7.82;;;4.15;;
77105;SDS011;66057;54.718;18.426;2024-02-23T05:56:56;5.47;;;3.30;;
77105;SDS011;66057;54.718;18.426;2024-02-23T05:59:22;7.28;;;3.55;;
77105;SDS011;66057;54.718;18.426;2024-02-23T06:01:47;4.43;;;2.17;;
77105;SDS011;66057;54.718;18.426;2024-02-23T06:04:13;4.72;;;2.42;;
77105;SDS011;66057;54.718;18.426;2024-02-23T06:06:42;3.22;;;2.13;;
77105;SDS011;66057;54.718;18.426;2024-02-23T06:09:08;3.97;;;2.90;;
77105;SDS011;66057;54.718;18.426;2024-02-23T06:11:35;2.63;;;1.73;;
77105;SDS011;66057;54.718;18.426;2024-02-23T06:14:00;1.73;;;1.50;;
77105;SDS011;66057;54.718;18.426;2024-02-23T06:16:26;3.97;;;3.08;;
77105;SDS011;66057;54.718;18.426;2024-02-23T06:18:51;3.55;;;2.70;;
77105;SDS011;66057;54.718;18.426;2024-02-23T06:21:17;6.28;;;2.50;;
77105;SDS011;66057;54.718;18.426;2024-02-23T06:23:43;3.42;;;2.30;;
77105;SDS011;66057;54.718;18.426;2024-02-23T06:26:09;3.60;;;2.03;;
77105;SDS011;66057;54.718;18.426;2024-02-23T06:28:35;4.50;;;2.47;;
77105;SDS011;66057;54.718;18.426;2024-02-23T06:31:03;3.95;;;2.10;;
77105;SDS011;66057;54.718;18.426;2024-02-23T06:33:30;4.13;;;1.90;;
77105;SDS011;66057;54.718;18.426;2024-02-23T06:35:55;2.45;;;1.80;;
77105;SDS011;66057;54.718;18.426;2024-02-23T06:38:21;1.60;;;0.98;;
77105;SDS011;66057;54.718;18.426;2024-02-23T06:40:47;3.70;;;2.35;;
77105;SDS011;66057;54.718;18.426;2024-02-23T06:43:12;4.20;;;2.28;;
77105;SDS011;66057;54.718;18.426;2024-02-23T06:45:38;2.05;;;1.83;;
77105;SDS011;66057;54.718;18.426;2024-02-23T06:48:04;3.50;;;2.30;;
77105;SDS011;66057;54.718;18.426;2024-02-23T06:50:29;2.75;;;2.00;;
77105;SDS011;66057;54.718;18.426;2024-02-23T06:52:55;4.60;;;1.23;;
77105;SDS011;66057;54.718;18.426;2024-02-23T06:55:20;2.08;;;1.65;;
77105;SDS011;66057;54.718;18.426;2024-02-23T06:57:46;2.72;;;1.27;;
77105;SDS011;66057;54.718;18.426;2024-02-23T07:00:12;2.97;;;2.42;;
77105;SDS011;66057;54.718;18.426;2024-02-23T07:02:38;4.43;;;2.20;;
77105;SDS011;66057;54.718;18.426;2024-02-23T07:05:04;3.53;;;1.67;;
77105;SDS011;66057;54.718;18.426;2024-02-23T07:07:31;2.03;;;1.33;;
77105;SDS011;66057;54.718;18.426;2024-02-23T07:09:58;2.95;;;1.90;;
77105;SDS011;66057;54.718;18.426;2024-02-23T07:12:24;3.65;;;1.95;;
77105;SDS011;66057;54.718;18.426;2024-02-23T07:14:51;3.88;;;2.17;;
77105;SDS011;66057;54.718;18.426;2024-02-23T07:17:16;3.35;;;2.00;;
77105;SDS011;66057;54.718;18.426;2024-02-23T07:19:42;3.83;;;0.98;;
77105;SDS011;66057;54.718;18.426;2024-02-23T07:22:10;3.13;;;1.38;;
77105;SDS011;66057;54.718;18.426;2024-02-23T07:24:39;2.28;;;1.45;;
77105;SDS011;66057;54.718;18.426;2024-02-23T07:27:05;2.63;;;1.98;;
77105;SDS011;66057;54.718;18.426;2024-02-23T07:29:31;1.80;;;1.20;;
77105;SDS011;66057;54.718;18.426;2024-02-23T07:31:57;2.83;;;1.63;;
77105;SDS011;66057;54.718;18.426;2024-02-23T07:34:22;5.47;;;3.08;;
77105;SDS011;66057;54.718;18.426;2024-02-23T07:36:51;2.95;;;2.50;;
77105;SDS011;66057;54.718;18.426;2024-02-23T07:39:16;3.47;;;1.60;;
77105;SDS011;66057;54.718;18.426;2024-02-23T07:41:42;3.92;;;2.10;;
77105;SDS011;66057;54.718;18.426;2024-02-23T07:44:07;2.83;;;1.40;;
77105;SDS011;66057;54.718;18.426;2024-02-23T07:46:33;2.80;;;1.40;;
77105;SDS011;66057;54.718;18.426;2024-02-23T07:48:59;1.77;;;1.08;;
77105;SDS011;66057;54.718;18.426;2024-02-23T07:51:26;3.63;;;1.80;;
77105;SDS011;66057;54.718;18.426;2024-02-23T07:53:52;1.73;;;1.10;;
77105;SDS011;66057;54.718;18.426;2024-02-23T07:56:17;3.38;;;1.70;;
77105;SDS011;66057;54.718;18.426;2024-02-23T07:58:43;2.47;;;1.70;;
77105;SDS011;66057;54.718;18.426;2024-02-23T08:01:09;1.13;;;0.93;;
77105;SDS011;66057;54.718;18.426;2024-02-23T08:03:34;3.10;;;1.20;;
77105;SDS011;66057;54.718;18.426;2024-02-23T08:06:00;2.08;;;0.93;;
77105;SDS011;66057;54.718;18.426;2024-02-23T08:08:26;3.22;;;1.05;;
77105;SDS011;66057;54.718;18.426;2024-02-23T08:10:53;1.45;;;0.93;;
77105;SDS011;66057;54.718;18.426;2024-02-23T08:13:19;2.80;;;0.45;;
77105;SDS011;66057;54.718;18.426;2024-02-23T08:15:44;1.00;;;0.32;;
77105;SDS011;66057;54.718;18.426;2024-02-23T08:18:10;2.25;;;0.77;;
77105;SDS011;66057;54.718;18.426;2024-02-23T08:20:36;5.57;;;0.98;;
77105;SDS011;66057;54.718;18.426;2024-02-23T08:23:01;2.75;;;0.70;;
77105;SDS011;66057;54.718;18.426;2024-02-23T08:25:27;1.38;;;0.32;;
77105;SDS011;66057;54.718;18.426;2024-02-23T08:30:20;3.00;;;0.57;;
77105;SDS011;66057;54.718;18.426;2024-02-23T08:32:45;2.03;;;0.57;;
77105;SDS011;66057;54.718;18.426;2024-02-23T08:35:11;2.65;;;0.82;;
77105;SDS011;66057;54.718;18.426;2024-02-23T08:37:37;0.98;;;0.38;;
77105;SDS011;66057;54.718;18.426;2024-02-23T08:40:03;3.70;;;0.73;;
77105;SDS011;66057;54.718;18.426;2024-02-23T08:42:28;4.57;;;0.98;;
77105;SDS011;66057;54.718;18.426;2024-02-23T08:44:54;2.25;;;0.82;;
77105;SDS011;66057;54.718;18.426;2024-02-23T08:47:19;1.35;;;0.32;;
77105;SDS011;66057;54.718;18.426;2024-02-23T08:49:45;0.88;;;0.40;;
77105;SDS011;66057;54.718;18.426;2024-02-23T08:52:11;1.85;;;0.50;;
77105;SDS011;66057;54.718;18.426;2024-02-23T08:54:37;2.28;;;1.05;;
77105;SDS011;66057;54.718;18.426;2024-02-23T08:57:04;1.70;;;0.50;;
77105;SDS011;66057;54.718;18.426;2024-02-23T08:59:30;2.00;;;0.45;;
77105;SDS011;66057;54.718;18.426;2024-02-23T09:01:56;6.07;;;1.25;;
77105;SDS011;66057;54.718;18.426;2024-02-23T09:04:21;2.63;;;1.02;;
77105;SDS011;66057;54.718;18.426;2024-02-23T09:06:47;2.97;;;1.20;;
77105;SDS011;66057;54.718;18.426;2024-02-23T09:09:15;3.33;;;0.77;;
77105;SDS011;66057;54.718;18.426;2024-02-23T09:11:41;1.13;;;0.65;;
77105;SDS011;66057;54.718;18.426;2024-02-23T09:14:07;2.30;;;0.50;;
77105;SDS011;66057;54.718;18.426;2024-02-23T09:16:33;5.25;;;1.13;;
77105;SDS011;66057;54.718;18.426;2024-02-23T09:18:58;5.10;;;1.38;;
77105;SDS011;66057;54.718;18.426;2024-02-23T09:21:24;1.75;;;0.65;;
77105;SDS011;66057;54.718;18.426;2024-02-23T09:23:50;2.50;;;0.85;;
77105;SDS011;66057;54.718;18.426;2024-02-23T09:26:15;2.97;;;0.80;;
77105;SDS011;66057;54.718;18.426;2024-02-23T09:28:41;2.97;;;0.80;;
77105;SDS011;66057;54.718;18.426;2024-02-23T09:31:07;3.83;;;0.80;;
77105;SDS011;66057;54.718;18.426;2024-02-23T09:33:33;4.00;;;0.98;;
77105;SDS011;66057;54.718;18.426;2024-02-23T09:35:58;1.33;;;0.47;;
77105;SDS011;66057;54.718;18.426;2024-02-23T09:38:24;2.30;;;1.10;;
77105;SDS011;66057;54.718;18.426;2024-02-23T09:40:51;0.80;;;0.30;;
77105;SDS011;66057;54.718;18.426;2024-02-23T09:43:17;2.80;;;1.25;;
77105;SDS011;66057;54.718;18.426;2024-02-23T09:45:43;5.68;;;2.58;;
77105;SDS011;66057;54.718;18.426;2024-02-23T09:48:09;3.65;;;1.27;;
77105;SDS011;66057;54.718;18.426;2024-02-23T09:50:35;2.45;;;0.68;;
77105;SDS011;66057;54.718;18.426;2024-02-23T09:53:01;0.40;;;0.30;;
77105;SDS011;66057;54.718;18.426;2024-02-23T09:55:29;3.53;;;0.55;;
77105;SDS011;66057;54.718;18.426;2024-02-23T09:57:55;2.25;;;0.52;;
77105;SDS011;66057;54.718;18.426;2024-02-23T10:00:23;5.40;;;1.60;;
77105;SDS011;66057;54.718;18.426;2024-02-23T10:02:49;1.75;;;0.63;;
77105;SDS011;66057;54.718;18.426;2024-02-23T10:05:15;1.65;;;1.00;;
77105;SDS011;66057;54.718;18.426;2024-02-23T10:07:42;3.10;;;0.95;;
77105;SDS011;66057;54.718;18.426;2024-02-23T10:12:36;6.38;;;1.48;;
77105;SDS011;66057;54.718;18.426;2024-02-23T10:15:03;6.63;;;1.17;;
77105;SDS011;66057;54.718;18.426;2024-02-23T10:17:32;1.73;;;0.70;;
77105;SDS011;66057;54.718;18.426;2024-02-23T10:19:58;1.92;;;0.70;;
77105;SDS011;66057;54.718;18.426;2024-02-23T10:22:24;2.08;;;0.90;;
77105;SDS011;66057;54.718;18.426;2024-02-23T10:24:55;2.97;;;0.77;;
77105;SDS011;66057;54.718;18.426;2024-02-23T10:27:21;1.00;;;0.52;;
77105;SDS011;66057;54.718;18.426;2024-02-23T10:29:51;0.52;;;0.40;;
77105;SDS011;66057;54.718;18.426;2024-02-23T10:32:16;1.77;;;0.68;;
77105;SDS011;66057;54.718;18.426;2024-02-23T10:34:43;0.95;;;0.50;;
77105;SDS011;66057;54.718;18.426;2024-02-23T10:37:09;3.55;;;0.93;;
77105;SDS011;66057;54.718;18.426;2024-02-23T10:39:36;0.80;;;0.40;;
77105;SDS011;66057;54.718;18.426;2024-02-23T10:42:03;2.20;;;0.60;;
77105;SDS011;66057;54.718;18.426;2024-02-23T10:44:29;1.17;;;0.30;;
77105;SDS011;66057;54.718;18.426;2024-02-23T10:49:23;0.68;;;0.30;;
77105;SDS011;66057;54.718;18.426;2024-02-23T10:51:51;1.25;;;0.45;;
77105;SDS011;66057;54.718;18.426;2024-02-23T10:54:17;0.82;;;0.40;;
77105;SDS011;66057;54.718;18.426;2024-02-23T10:56:51;1.65;;;0.60;;
77105;SDS011;66057;54.718;18.426;2024-02-23T10:59:18;2.40;;;0.40;;
77105;SDS011;66057;54.718;18.426;2024-02-23T11:01:48;0.90;;;0.43;;
77105;SDS011;66057;54.718;18.426;2024-02-23T11:04:17;0.77;;;0.32;;
77105;SDS011;66057;54.718;18.426;2024-02-23T11:06:48;1.75;;;0.68;;
77105;SDS011;66057;54.718;18.426;2024-02-23T11:09:14;2.08;;;0.50;;
77105;SDS011;66057;54.718;18.426;2024-02-23T11:11:40;2.15;;;0.60;;
77105;SDS011;66057;54.718;18.426;2024-02-23T11:14:16;1.65;;;0.75;;
77105;SDS011;66057;54.718;18.426;2024-02-23T11:16:41;0.82;;;0.75;;
77105;SDS011;66057;54.718;18.426;2024-02-23T11:19:09;1.13;;;0.50;;
77105;SDS011;66057;54.718;18.426;2024-02-23T11:21:37;1.00;;;0.28;;
77105;SDS011;66057;54.718;18.426;2024-02-23T11:24:05;1.73;;;0.52;;
77105;SDS011;66057;54.718;18.426;2024-02-23T11:26:31;6.00;;;1.08;;
77105;SDS011;66057;54.718;18.426;2024-02-23T11:28:58;1.42;;;0.40;;
77105;SDS011;66057;54.718;18.426;2024-02-23T11:31:28;1.83;;;0.60;;
77105;SDS011;66057;54.718;18.426;2024-02-23T11:33:54;1.70;;;0.63;;
77105;SDS011;66057;54.718;18.426;2024-02-23T11:36:23;4.32;;;1.00;;
77105;SDS011;66057;54.718;18.426;2024-02-23T11:38:52;1.52;;;0.68;;
77105;SDS011;66057;54.718;18.426;2024-02-23T11:41:18;1.05;;;0.30;;
77105;SDS011;66057;54.718;18.426;2024-02-23T11:43:44;2.05;;;0.40;;
77105;SDS011;66057;54.718;18.426;2024-02-23T11:46:12;0.90;;;0.38;;
77105;SDS011;66057;54.718;18.426;2024-02-23T11:48:37;3.70;;;1.02;;
77105;SDS011;66057;54.718;18.426;2024-02-23T11:51:03;4.07;;;0.80;;
77105;SDS011;66057;54.718;18.426;2024-02-23T11:53:29;1.73;;;0.75;;
77105;SDS011;66057;54.718;18.426;2024-02-23T11:55:55;2.92;;;0.70;;
77105;SDS011;66057;54.718;18.426;2024-02-23T11:58:20;2.20;;;0.60;;
77105;SDS011;66057;54.718;18.426;2024-02-23T12:00:46;2.70;;;0.20;;
77105;SDS011;66057;54.718;18.426;2024-02-23T12:03:12;1.70;;;0.77;;
77105;SDS011;66057;54.718;18.426;2024-02-23T12:05:38;1.25;;;0.70;;
77105;SDS011;66057;54.718;18.426;2024-02-23T12:08:04;0.88;;;0.15;;
77105;SDS011;66057;54.718;18.426;2024-02-23T12:10:30;2.25;;;0.30;;
77105;SDS011;66057;54.718;18.426;2024-02-23T12:12:56;1.20;;;0.40;;
77105;SDS011;66057;54.718;18.426;2024-02-23T12:15:21;2.25;;;0.80;;
77105;SDS011;66057;54.718;18.426;2024-02-23T12:17:47;1.02;;;0.63;;
77105;SDS011;66057;54.718;18.426;2024-02-23T12:20:13;4.10;;;0.90;;
77105;SDS011;66057;54.718;18.426;2024-02-23T12:22:40;8.20;;;2.30;;
77105;SDS011;66057;54.718;18.426;2024-02-23T12:25:06;3.30;;;1.60;;
77105;SDS011;66057;54.718;18.426;2024-02-23T12:27:32;3.75;;;0.95;;
77105;SDS011;66057;54.718;18.426;2024-02-23T12:29:58;4.40;;;1.13;;
77105;SDS011;66057;54.718;18.426;2024-02-23T12:32:24;4.60;;;1.23;;
77105;SDS011;66057;54.718;18.426;2024-02-23T12:34:50;4.40;;;1.02;;
77105;SDS011;66057;54.718;18.426;2024-02-23T12:39:43;3.28;;;1.25;;
77105;SDS011;66057;54.718;18.426;2024-02-23T12:42:08;2.67;;;1.35;;
77105;SDS011;66057;54.718;18.426;2024-02-23T12:44:34;2.78;;;1.08;;
77105;SDS011;66057;54.718;18.426;2024-02-23T12:47:00;1.40;;;0.40;;
77105;SDS011;66057;54.718;18.426;2024-02-23T12:49:26;4.70;;;1.40;;
77105;SDS011;66057;54.718;18.426;2024-02-23T12:51:51;3.17;;;0.90;;
77105;SDS011;66057;54.718;18.426;2024-02-23T12:54:17;4.63;;;0.65;;
77105;SDS011;66057;54.718;18.426;2024-02-23T12:56:42;4.80;;;0.80;;
77105;SDS011;66057;54.718;18.426;2024-02-23T12:59:08;1.40;;;0.63;;
77105;SDS011;66057;54.718;18.426;2024-02-23T13:01:34;1.55;;;0.45;;
77105;SDS011;66057;54.718;18.426;2024-02-23T13:04:03;1.70;;;0.77;;
77105;SDS011;66057;54.718;18.426;2024-02-23T13:06:28;4.88;;;1.65;;
77105;SDS011;66057;54.718;18.426;2024-02-23T13:08:54;7.75;;;1.55;;
77105;SDS011;66057;54.718;18.426;2024-02-23T13:11:19;4.05;;;1.00;;
77105;SDS011;66057;54.718;18.426;2024-02-23T13:13:45;4.85;;;1.20;;
77105;SDS011;66057;54.718;18.426;2024-02-23T13:16:10;4.10;;;1.27;;
77105;SDS011;66057;54.718;18.426;2024-02-23T13:18:36;6.03;;;0.75;;
77105;SDS011;66057;54.718;18.426;2024-02-23T13:21:02;3.22;;;0.60;;
77105;SDS011;66057;54.718;18.426;2024-02-23T13:23:29;2.15;;;0.40;;
77105;SDS011;66057;54.718;18.426;2024-02-23T13:25:54;1.30;;;0.52;;
77105;SDS011;66057;54.718;18.426;2024-02-23T13:28:20;2.53;;;0.60;;
77105;SDS011;66057;54.718;18.426;2024-02-23T13:30:45;1.73;;;0.77;;
77105;SDS011;66057;54.718;18.426;2024-02-23T13:33:11;2.13;;;0.98;;
77105;SDS011;66057;54.718;18.426;2024-02-23T13:35:36;4.90;;;1.33;;
77105;SDS011;66057;54.718;18.426;2024-02-23T13:38:02;6.38;;;0.98;;
77105;SDS011;66057;54.718;18.426;2024-02-23T13:40:32;11.43;;;1.83;;
77105;SDS011;66057;54.718;18.426;2024-02-23T13:42:57;5.13;;;1.95;;
77105;SDS011;66057;54.718;18.426;2024-02-23T13:45:23;5.10;;;1.52;;
77105;SDS011;66057;54.718;18.426;2024-02-23T13:48:00;5.47;;;1.77;;
77105;SDS011;66057;54.718;18.426;2024-02-23T13:50:25;4.90;;;1.70;;
77105;SDS011;66057;54.718;18.426;2024-02-23T13:52:51;4.38;;;1.42;;
77105;SDS011;66057;54.718;18.426;2024-02-23T13:55:17;4.32;;;2.03;;
77105;SDS011;66057;54.718;18.426;2024-02-23T13:57:43;4.97;;;1.73;;
77105;SDS011;66057;54.718;18.426;2024-02-23T14:00:08;10.60;;;3.28;;
77105;SDS011;66057;54.718;18.426;2024-02-23T14:02:38;5.30;;;1.35;;
77105;SDS011;66057;54.718;18.426;2024-02-23T14:05:05;4.70;;;1.40;;
77105;SDS011;66057;54.718;18.426;2024-02-23T14:09:57;18.05;;;6.53;;
77105;SDS011;66057;54.718;18.426;2024-02-23T14:12:23;18.67;;;6.68;;
77105;SDS011;66057;54.718;18.426;2024-02-23T14:14:48;6.93;;;2.58;;
77105;SDS011;66057;54.718;18.426;2024-02-23T14:17:14;3.78;;;1.13;;
77105;SDS011;66057;54.718;18.426;2024-02-23T14:19:39;3.15;;;1.20;;
77105;SDS011;66057;54.718;18.426;2024-02-23T14:22:05;1.73;;;0.38;;
77105;SDS011;66057;54.718;18.426;2024-02-23T14:24:31;1.02;;;0.32;;
77105;SDS011;66057;54.718;18.426;2024-02-23T14:26:57;2.00;;;0.50;;
77105;SDS011;66057;54.718;18.426;2024-02-23T14:29:23;1.55;;;0.32;;
77105;SDS011;66057;54.718;18.426;2024-02-23T14:31:48;2.50;;;0.68;;
77105;SDS011;66057;54.718;18.426;2024-02-23T14:34:14;0.70;;;0.35;;
77105;SDS011;66057;54.718;18.426;2024-02-23T14:36:40;1.98;;;0.52;;
77105;SDS011;66057;54.718;18.426;2024-02-23T14:39:05;1.98;;;0.40;;
77105;SDS011;66057;54.718;18.426;2024-02-23T14:41:31;1.48;;;0.30;;
77105;SDS011;66057;54.718;18.426;2024-02-23T14:43:56;6.60;;;0.57;;
77105;SDS011;66057;54.718;18.426;2024-02-23T14:46:22;4.20;;;0.60;;
77105;SDS011;66057;54.718;18.426;2024-02-23T14:48:48;5.60;;;0.95;;